sensor_id;sensor_type;location;lat;lon;timestamp;temperature;humidity
26743;DHT22;14341;51.256;22.478;2023-04-03T00:01:18;1.10;99.90
26743;DHT22;14341;51.256;22.478;2023-04-03T00:04:21;1.10;99.90
26743;DHT22;14341;51.256;22.478;2023-04-03T00:07:25;1.00;99.90
26743;DHT22;14341;51.256;22.478;2023-04-03T00:10:29;1.00;99.90
26743;DHT22;14341;51.256;22.478;2023-04-03T00:13:33;1.00;99.90
26743;DHT22;14341;51.256;22.478;2023-04-03T00:16:37;1.00;99.90
26743;DHT22;14341;51.256;22.478;2023-04-03T00:19:40;1.00;99.90
26743;DHT22;14341;51.256;22.478;2023-04-03T00:22:43;1.00;99.90
26743;DHT22;14341;51.256;22.478;2023-04-03T00:25:48;1.00;99.90
26743;DHT22;14341;51.256;22.478;2023-04-03T00:28:51;0.90;99.90
26743;DHT22;14341;51.256;22.478;2023-04-03T00:31:54;1.00;99.90
26743;DHT22;14341;51.256;22.478;2023-04-03T00:34:58;0.90;99.90
26743;DHT22;14341;51.256;22.478;2023-04-03T00:38:01;0.90;99.90
26743;DHT22;14341;51.256;22.478;2023-04-03T00:41:06;0.90;99.90
26743;DHT22;14341;51.256;22.478;2023-04-03T00:44:20;0.90;99.90
26743;DHT22;14341;51.256;22.478;2023-04-03T00:47:24;0.90;99.90
26743;DHT22;14341;51.256;22.478;2023-04-03T00:50:28;0.90;99.90
26743;DHT22;14341;51.256;22.478;2023-04-03T00:53:37;0.90;99.90
26743;DHT22;14341;51.256;22.478;2023-04-03T00:56:43;1.00;99.90
26743;DHT22;14341;51.256;22.478;2023-04-03T00:59:50;0.90;99.90
26743;DHT22;14341;51.256;22.478;2023-04-03T01:02:54;1.00;99.90
26743;DHT22;14341;51.256;22.478;2023-04-03T01:05:58;0.90;99.90
26743;DHT22;14341;51.256;22.478;2023-04-03T01:09:03;0.90;99.90
26743;DHT22;14341;51.256;22.478;2023-04-03T01:12:15;0.90;99.90
26743;DHT22;14341;51.256;22.478;2023-04-03T01:15:23;0.90;99.90
26743;DHT22;14341;51.256;22.478;2023-04-03T01:18:27;0.90;99.90
26743;DHT22;14341;51.256;22.478;2023-04-03T01:21:54;0.90;99.90
26743;DHT22;14341;51.256;22.478;2023-04-03T01:24:59;0.90;99.90
26743;DHT22;14341;51.256;22.478;2023-04-03T01:28:04;0.80;99.90
26743;DHT22;14341;51.256;22.478;2023-04-03T01:31:14;0.80;99.90
26743;DHT22;14341;51.256;22.478;2023-04-03T01:34:22;0.90;99.90
26743;DHT22;14341;51.256;22.478;2023-04-03T01:37:26;0.80;99.90
26743;DHT22;14341;51.256;22.478;2023-04-03T01:40:30;0.80;99.90
26743;DHT22;14341;51.256;22.478;2023-04-03T01:43:34;0.80;99.90
26743;DHT22;14341;51.256;22.478;2023-04-03T01:46:39;0.80;99.90
26743;DHT22;14341;51.256;22.478;2023-04-03T01:49:49;0.80;99.90
26743;DHT22;14341;51.256;22.478;2023-04-03T01:52:56;0.80;99.90
26743;DHT22;14341;51.256;22.478;2023-04-03T01:56:04;0.80;99.90
26743;DHT22;14341;51.256;22.478;2023-04-03T02:03:26;0.70;99.90
26743;DHT22;14341;51.256;22.478;2023-04-03T02:06:31;0.70;99.90
26743;DHT22;14341;51.256;22.478;2023-04-03T02:09:34;0.70;99.90
26743;DHT22;14341;51.256;22.478;2023-04-03T02:12:38;0.70;99.90
26743;DHT22;14341;51.256;22.478;2023-04-03T02:15:41;0.70;99.90
26743;DHT22;14341;51.256;22.478;2023-04-03T02:18:45;0.60;99.90
26743;DHT22;14341;51.256;22.478;2023-04-03T02:21:50;0.60;99.90
26743;DHT22;14341;51.256;22.478;2023-04-03T02:24:53;0.60;99.90
26743;DHT22;14341;51.256;22.478;2023-04-03T02:27:56;0.60;99.90
26743;DHT22;14341;51.256;22.478;2023-04-03T02:30:59;0.60;99.90
26743;DHT22;14341;51.256;22.478;2023-04-03T02:34:03;0.60;99.90
26743;DHT22;14341;51.256;22.478;2023-04-03T02:37:10;0.70;99.90
26743;DHT22;14341;51.256;22.478;2023-04-03T02:40:13;0.60;99.90
26743;DHT22;14341;51.256;22.478;2023-04-03T02:43:17;0.70;99.90
26743;DHT22;14341;51.256;22.478;2023-04-03T02:46:21;0.60;99.90
26743;DHT22;14341;51.256;22.478;2023-04-03T02:49:24;0.60;99.90
26743;DHT22;14341;51.256;22.478;2023-04-03T02:52:29;0.60;99.90
26743;DHT22;14341;51.256;22.478;2023-04-03T02:55:33;0.70;99.90
26743;DHT22;14341;51.256;22.478;2023-04-03T02:58:37;0.60;99.90
26743;DHT22;14341;51.256;22.478;2023-04-03T03:01:43;0.60;99.90
26743;DHT22;14341;51.256;22.478;2023-04-03T03:04:47;0.60;99.90
26743;DHT22;14341;51.256;22.478;2023-04-03T03:07:51;0.50;99.90
26743;DHT22;14341;51.256;22.478;2023-04-03T03:10:54;0.50;99.90
26743;DHT22;14341;51.256;22.478;2023-04-03T03:13:58;0.50;99.90
26743;DHT22;14341;51.256;22.478;2023-04-03T03:17:01;0.40;99.90
26743;DHT22;14341;51.256;22.478;2023-04-03T03:20:05;0.40;99.90
26743;DHT22;14341;51.256;22.478;2023-04-03T03:23:10;0.40;99.90
26743;DHT22;14341;51.256;22.478;2023-04-03T03:26:13;0.40;99.90
26743;DHT22;14341;51.256;22.478;2023-04-03T03:29:17;0.30;99.90
26743;DHT22;14341;51.256;22.478;2023-04-03T03:32:20;0.30;99.90
26743;DHT22;14341;51.256;22.478;2023-04-03T03:35:24;0.30;99.90
26743;DHT22;14341;51.256;22.478;2023-04-03T03:38:28;0.20;99.90
26743;DHT22;14341;51.256;22.478;2023-04-03T03:41:34;0.30;99.90
26743;DHT22;14341;51.256;22.478;2023-04-03T03:44:38;0.20;99.90
26743;DHT22;14341;51.256;22.478;2023-04-03T03:47:41;0.20;99.90
26743;DHT22;14341;51.256;22.478;2023-04-03T03:50:45;0.20;99.90
26743;DHT22;14341;51.256;22.478;2023-04-03T03:53:49;0.10;99.90
26743;DHT22;14341;51.256;22.478;2023-04-03T03:56:54;0.10;99.90
26743;DHT22;14341;51.256;22.478;2023-04-03T03:59:59;0.00;99.90
26743;DHT22;14341;51.256;22.478;2023-04-03T04:03:04;0.00;99.90
26743;DHT22;14341;51.256;22.478;2023-04-03T04:06:08;0.00;99.90
26743;DHT22;14341;51.256;22.478;2023-04-03T04:09:13;-0.10;99.90
26743;DHT22;14341;51.256;22.478;2023-04-03T04:12:16;-0.10;99.90
26743;DHT22;14341;51.256;22.478;2023-04-03T04:15:19;-0.20;99.90
26743;DHT22;14341;51.256;22.478;2023-04-03T04:18:24;-0.20;99.90
26743;DHT22;14341;51.256;22.478;2023-04-03T04:21:27;-0.20;99.90
26743;DHT22;14341;51.256;22.478;2023-04-03T04:24:32;-0.30;99.90
26743;DHT22;14341;51.256;22.478;2023-04-03T04:27:38;-0.40;99.90
26743;DHT22;14341;51.256;22.478;2023-04-03T04:30:42;-0.40;99.90
26743;DHT22;14341;51.256;22.478;2023-04-03T04:33:47;-0.40;99.90
26743;DHT22;14341;51.256;22.478;2023-04-03T04:36:50;-0.40;99.90
26743;DHT22;14341;51.256;22.478;2023-04-03T04:39:56;-0.40;99.90
26743;DHT22;14341;51.256;22.478;2023-04-03T04:42:59;-0.40;99.90
26743;DHT22;14341;51.256;22.478;2023-04-03T04:46:04;-0.40;99.90
26743;DHT22;14341;51.256;22.478;2023-04-03T04:49:12;-0.40;99.90
26743;DHT22;14341;51.256;22.478;2023-04-03T04:52:15;-0.40;99.90
26743;DHT22;14341;51.256;22.478;2023-04-03T04:55:21;-0.40;99.90
26743;DHT22;14341;51.256;22.478;2023-04-03T04:58:27;-0.40;99.90
26743;DHT22;14341;51.256;22.478;2023-04-03T05:01:31;-0.40;99.90
26743;DHT22;14341;51.256;22.478;2023-04-03T05:04:41;-0.40;99.90
26743;DHT22;14341;51.256;22.478;2023-04-03T05:07:51;-0.40;99.90
26743;DHT22;14341;51.256;22.478;2023-04-03T05:10:56;-0.30;99.90
26743;DHT22;14341;51.256;22.478;2023-04-03T05:14:01;-0.30;99.90
26743;DHT22;14341;51.256;22.478;2023-04-03T05:17:08;-0.40;99.90
26743;DHT22;14341;51.256;22.478;2023-04-03T05:20:19;-0.20;99.90
26743;DHT22;14341;51.256;22.478;2023-04-03T05:23:23;-0.20;99.90
26743;DHT22;14341;51.256;22.478;2023-04-03T05:26:29;-0.20;99.90
26743;DHT22;14341;51.256;22.478;2023-04-03T05:29:33;-0.20;99.90
26743;DHT22;14341;51.256;22.478;2023-04-03T05:32:39;-0.10;99.90
26743;DHT22;14341;51.256;22.478;2023-04-03T05:36:06;-0.10;99.90
26743;DHT22;14341;51.256;22.478;2023-04-03T05:39:15;-0.10;99.90
26743;DHT22;14341;51.256;22.478;2023-04-03T05:42:22;-0.10;99.90
26743;DHT22;14341;51.256;22.478;2023-04-03T05:45:26;-0.10;99.90
26743;DHT22;14341;51.256;22.478;2023-04-03T05:48:31;-0.10;99.90
26743;DHT22;14341;51.256;22.478;2023-04-03T05:51:36;-0.20;99.90
26743;DHT22;14341;51.256;22.478;2023-04-03T05:54:54;-0.20;99.90
26743;DHT22;14341;51.256;22.478;2023-04-03T05:58:02;-0.10;99.90
26743;DHT22;14341;51.256;22.478;2023-04-03T06:01:06;0.00;99.90
26743;DHT22;14341;51.256;22.478;2023-04-03T06:04:10;0.00;99.90
26743;DHT22;14341;51.256;22.478;2023-04-03T06:07:16;0.10;99.90
26743;DHT22;14341;51.256;22.478;2023-04-03T06:10:19;0.10;99.90
26743;DHT22;14341;51.256;22.478;2023-04-03T06:13:24;0.20;99.90
26743;DHT22;14341;51.256;22.478;2023-04-03T06:16:27;0.30;99.90
26743;DHT22;14341;51.256;22.478;2023-04-03T06:19:31;0.30;99.90
26743;DHT22;14341;51.256;22.478;2023-04-03T06:22:35;0.30;99.90
26743;DHT22;14341;51.256;22.478;2023-04-03T06:26:13;0.30;99.90
26743;DHT22;14341;51.256;22.478;2023-04-03T06:39:37;0.30;99.90
26743;DHT22;14341;51.256;22.478;2023-04-03T06:42:40;0.30;99.90
26743;DHT22;14341;51.256;22.478;2023-04-03T06:45:47;0.30;99.90
26743;DHT22;14341;51.256;22.478;2023-04-03T06:48:50;0.30;99.90
26743;DHT22;14341;51.256;22.478;2023-04-03T06:51:54;0.30;99.90
26743;DHT22;14341;51.256;22.478;2023-04-03T06:54:58;0.30;99.90
26743;DHT22;14341;51.256;22.478;2023-04-03T06:58:02;0.20;99.90
26743;DHT22;14341;51.256;22.478;2023-04-03T07:01:06;0.20;99.90
26743;DHT22;14341;51.256;22.478;2023-04-03T07:04:09;0.30;99.90
26743;DHT22;14341;51.256;22.478;2023-04-03T07:07:13;0.30;99.90
26743;DHT22;14341;51.256;22.478;2023-04-03T07:10:18;0.30;99.90
26743;DHT22;14341;51.256;22.478;2023-04-03T07:13:21;0.40;99.90
26743;DHT22;14341;51.256;22.478;2023-04-03T07:16:25;0.50;99.90
26743;DHT22;14341;51.256;22.478;2023-04-03T07:19:29;0.50;99.90
26743;DHT22;14341;51.256;22.478;2023-04-03T07:22:33;0.40;99.90
26743;DHT22;14341;51.256;22.478;2023-04-03T07:25:42;0.50;99.90
26743;DHT22;14341;51.256;22.478;2023-04-03T07:28:45;0.60;99.90
26743;DHT22;14341;51.256;22.478;2023-04-03T07:31:50;0.70;99.90
26743;DHT22;14341;51.256;22.478;2023-04-03T07:34:55;0.80;99.90
26743;DHT22;14341;51.256;22.478;2023-04-03T07:37:58;1.00;99.90
26743;DHT22;14341;51.256;22.478;2023-04-03T07:41:04;1.10;99.90
26743;DHT22;14341;51.256;22.478;2023-04-03T07:44:07;1.10;99.90
26743;DHT22;14341;51.256;22.478;2023-04-03T07:47:11;1.10;99.90
26743;DHT22;14341;51.256;22.478;2023-04-03T07:50:16;1.10;99.90
26743;DHT22;14341;51.256;22.478;2023-04-03T07:53:19;1.00;99.90
26743;DHT22;14341;51.256;22.478;2023-04-03T07:56:24;1.20;99.90
26743;DHT22;14341;51.256;22.478;2023-04-03T07:59:28;1.10;99.90
26743;DHT22;14341;51.256;22.478;2023-04-03T08:02:31;1.00;99.90
26743;DHT22;14341;51.256;22.478;2023-04-03T08:05:37;1.00;99.90
26743;DHT22;14341;51.256;22.478;2023-04-03T08:08:40;1.10;99.90
26743;DHT22;14341;51.256;22.478;2023-04-03T08:11:45;1.10;99.90
26743;DHT22;14341;51.256;22.478;2023-04-03T08:14:48;1.20;99.90
26743;DHT22;14341;51.256;22.478;2023-04-03T08:17:52;1.20;99.80
26743;DHT22;14341;51.256;22.478;2023-04-03T08:20:55;1.30;99.90
26743;DHT22;14341;51.256;22.478;2023-04-03T08:23:58;1.30;99.90
26743;DHT22;14341;51.256;22.478;2023-04-03T08:27:03;1.40;99.90
26743;DHT22;14341;51.256;22.478;2023-04-03T08:30:08;1.40;99.80
26743;DHT22;14341;51.256;22.478;2023-04-03T08:33:11;1.30;91.10
26743;DHT22;14341;51.256;22.478;2023-04-03T08:36:18;1.30;97.10
26743;DHT22;14341;51.256;22.478;2023-04-03T08:39:22;1.30;82.10
26743;DHT22;14341;51.256;22.478;2023-04-03T08:42:38;1.30;92.10
26743;DHT22;14341;51.256;22.478;2023-04-03T08:45:48;1.30;84.00
26743;DHT22;14341;51.256;22.478;2023-04-03T08:48:53;1.30;72.20
26743;DHT22;14341;51.256;22.478;2023-04-03T08:52:00;1.20;61.20
26743;DHT22;14341;51.256;22.478;2023-04-03T08:55:07;1.30;50.50
26743;DHT22;14341;51.256;22.478;2023-04-03T08:58:20;1.40;59.70
26743;DHT22;14341;51.256;22.478;2023-04-03T09:01:27;1.40;40.80
26743;DHT22;14341;51.256;22.478;2023-04-03T09:04:33;1.60;62.20
26743;DHT22;14341;51.256;22.478;2023-04-03T09:07:42;1.70;71.10
26743;DHT22;14341;51.256;22.478;2023-04-03T09:10:45;1.80;69.10
26743;DHT22;14341;51.256;22.478;2023-04-03T09:13:54;1.80;60.10
26743;DHT22;14341;51.256;22.478;2023-04-03T09:17:03;1.80;41.60
26743;DHT22;14341;51.256;22.478;2023-04-03T09:20:17;1.90;47.40
26743;DHT22;14341;51.256;22.478;2023-04-03T09:23:26;1.90;34.20
26743;DHT22;14341;51.256;22.478;2023-04-03T09:26:34;2.00;39.80
26743;DHT22;14341;51.256;22.478;2023-04-03T09:29:42;2.00;19.50
26743;DHT22;14341;51.256;22.478;2023-04-03T09:32:50;2.10;1.00
26743;DHT22;14341;51.256;22.478;2023-04-03T09:35:54;2.20;1.00
26743;DHT22;14341;51.256;22.478;2023-04-03T09:39:03;2.30;16.50
26743;DHT22;14341;51.256;22.478;2023-04-03T09:42:18;2.60;2.60
26743;DHT22;14341;51.256;22.478;2023-04-03T09:45:26;2.80;4.50
26743;DHT22;14341;51.256;22.478;2023-04-03T09:48:30;2.80;1.00
26743;DHT22;14341;51.256;22.478;2023-04-03T09:51:34;2.60;1.00
26743;DHT22;14341;51.256;22.478;2023-04-03T09:54:38;2.80;1.00
26743;DHT22;14341;51.256;22.478;2023-04-03T09:57:43;3.00;1.00
26743;DHT22;14341;51.256;22.478;2023-04-03T10:00:54;2.90;1.00
26743;DHT22;14341;51.256;22.478;2023-04-03T10:04:09;2.90;1.00
26743;DHT22;14341;51.256;22.478;2023-04-03T10:07:29;3.00;1.00
26743;DHT22;14341;51.256;22.478;2023-04-03T10:10:32;3.30;1.00
26743;DHT22;14341;51.256;22.478;2023-04-03T10:13:36;3.30;1.00
26743;DHT22;14341;51.256;22.478;2023-04-03T10:16:57;3.40;1.00
26743;DHT22;14341;51.256;22.478;2023-04-03T10:20:09;3.60;1.00
26743;DHT22;14341;51.256;22.478;2023-04-03T10:23:18;3.60;1.00
26743;DHT22;14341;51.256;22.478;2023-04-03T10:26:32;3.60;1.00
26743;DHT22;14341;51.256;22.478;2023-04-03T10:29:45;3.50;1.00
26743;DHT22;14341;51.256;22.478;2023-04-03T10:33:01;3.50;1.00
26743;DHT22;14341;51.256;22.478;2023-04-03T10:36:16;3.50;1.00
26743;DHT22;14341;51.256;22.478;2023-04-03T10:39:28;3.40;1.00
26743;DHT22;14341;51.256;22.478;2023-04-03T10:42:39;3.60;1.00
26743;DHT22;14341;51.256;22.478;2023-04-03T10:45:52;3.80;1.00
26743;DHT22;14341;51.256;22.478;2023-04-03T10:49:10;3.90;1.00
26743;DHT22;14341;51.256;22.478;2023-04-03T10:52:21;4.10;1.00
26743;DHT22;14341;51.256;22.478;2023-04-03T10:55:34;4.40;1.00
26743;DHT22;14341;51.256;22.478;2023-04-03T10:58:41;4.60;1.00
26743;DHT22;14341;51.256;22.478;2023-04-03T11:01:48;4.50;1.00
26743;DHT22;14341;51.256;22.478;2023-04-03T11:04:59;4.30;1.00
26743;DHT22;14341;51.256;22.478;2023-04-03T11:08:10;4.20;1.00
26743;DHT22;14341;51.256;22.478;2023-04-03T11:11:17;3.90;1.00
26743;DHT22;14341;51.256;22.478;2023-04-03T11:14:26;3.80;1.00
26743;DHT22;14341;51.256;22.478;2023-04-03T11:17:34;3.90;1.00
26743;DHT22;14341;51.256;22.478;2023-04-03T11:20:44;4.00;1.00
26743;DHT22;14341;51.256;22.478;2023-04-03T11:23:49;4.00;1.00
26743;DHT22;14341;51.256;22.478;2023-04-03T11:26:56;3.80;1.00
26743;DHT22;14341;51.256;22.478;2023-04-03T11:30:02;3.90;1.00
26743;DHT22;14341;51.256;22.478;2023-04-03T11:33:28;4.00;1.00
26743;DHT22;14341;51.256;22.478;2023-04-03T11:36:40;4.30;1.00
26743;DHT22;14341;51.256;22.478;2023-04-03T11:39:52;4.40;99.90
26743;DHT22;14341;51.256;22.478;2023-04-03T11:43:06;4.30;99.90
26743;DHT22;14341;51.256;22.478;2023-04-03T11:46:09;4.50;1.00
26743;DHT22;14341;51.256;22.478;2023-04-03T11:53:01;4.70;99.90
26743;DHT22;14341;51.256;22.478;2023-04-03T11:56:30;4.40;99.90
26743;DHT22;14341;51.256;22.478;2023-04-03T11:59:37;4.50;99.90
26743;DHT22;14341;51.256;22.478;2023-04-03T12:02:40;4.40;99.90
26743;DHT22;14341;51.256;22.478;2023-04-03T12:05:57;4.20;99.90
26743;DHT22;14341;51.256;22.478;2023-04-03T12:09:04;4.00;99.90
26743;DHT22;14341;51.256;22.478;2023-04-03T12:12:30;4.10;99.90
26743;DHT22;14341;51.256;22.478;2023-04-03T12:15:52;4.10;99.90
26743;DHT22;14341;51.256;22.478;2023-04-03T12:18:58;4.30;99.90
26743;DHT22;14341;51.256;22.478;2023-04-03T12:22:08;4.40;99.90
26743;DHT22;14341;51.256;22.478;2023-04-03T12:25:48;4.30;99.90
26743;DHT22;14341;51.256;22.478;2023-04-03T12:28:53;4.10;99.90
26743;DHT22;14341;51.256;22.478;2023-04-03T12:32:07;4.00;99.90
26743;DHT22;14341;51.256;22.478;2023-04-03T12:35:20;3.80;99.90
26743;DHT22;14341;51.256;22.478;2023-04-03T12:38:51;3.90;99.90
26743;DHT22;14341;51.256;22.478;2023-04-03T12:42:04;3.90;99.90
26743;DHT22;14341;51.256;22.478;2023-04-03T12:45:20;4.10;99.90
26743;DHT22;14341;51.256;22.478;2023-04-03T12:48:26;4.10;99.90
26743;DHT22;14341;51.256;22.478;2023-04-03T12:51:35;4.10;99.90
26743;DHT22;14341;51.256;22.478;2023-04-03T12:54:40;4.20;99.90
26743;DHT22;14341;51.256;22.478;2023-04-03T12:57:45;4.20;99.90
26743;DHT22;14341;51.256;22.478;2023-04-03T13:00:59;4.30;99.90
26743;DHT22;14341;51.256;22.478;2023-04-03T13:04:03;4.40;99.90
26743;DHT22;14341;51.256;22.478;2023-04-03T13:07:19;4.60;99.90
26743;DHT22;14341;51.256;22.478;2023-04-03T13:10:23;4.70;99.90
26743;DHT22;14341;51.256;22.478;2023-04-03T13:13:28;4.60;99.90
26743;DHT22;14341;51.256;22.478;2023-04-03T13:16:32;4.60;99.90
26743;DHT22;14341;51.256;22.478;2023-04-03T13:19:36;4.80;99.90
26743;DHT22;14341;51.256;22.478;2023-04-03T13:22:50;4.90;99.90
26743;DHT22;14341;51.256;22.478;2023-04-03T13:25:54;4.70;99.90
26743;DHT22;14341;51.256;22.478;2023-04-03T13:29:03;4.80;99.90
26743;DHT22;14341;51.256;22.478;2023-04-03T13:32:18;4.80;99.90
26743;DHT22;14341;51.256;22.478;2023-04-03T13:35:41;5.10;99.90
26743;DHT22;14341;51.256;22.478;2023-04-03T13:38:44;4.90;99.90
26743;DHT22;14341;51.256;22.478;2023-04-03T13:41:49;4.90;99.90
26743;DHT22;14341;51.256;22.478;2023-04-03T13:48:37;4.70;99.90
26743;DHT22;14341;51.256;22.478;2023-04-03T13:51:41;4.70;99.90
26743;DHT22;14341;51.256;22.478;2023-04-03T13:54:52;4.60;99.90
26743;DHT22;14341;51.256;22.478;2023-04-03T13:57:59;4.50;99.90
26743;DHT22;14341;51.256;22.478;2023-04-03T14:01:10;4.60;99.90
26743;DHT22;14341;51.256;22.478;2023-04-03T14:04:18;4.60;99.90
26743;DHT22;14341;51.256;22.478;2023-04-03T14:07:22;3.90;99.90
26743;DHT22;14341;51.256;22.478;2023-04-03T14:10:26;4.70;99.90
26743;DHT22;14341;51.256;22.478;2023-04-03T14:13:30;4.80;99.90
26743;DHT22;14341;51.256;22.478;2023-04-03T14:16:38;4.90;99.90
26743;DHT22;14341;51.256;22.478;2023-04-03T14:19:45;5.10;99.90
26743;DHT22;14341;51.256;22.478;2023-04-03T14:22:48;5.00;99.90
26743;DHT22;14341;51.256;22.478;2023-04-03T14:25:53;5.00;99.90
26743;DHT22;14341;51.256;22.478;2023-04-03T14:29:14;4.90;99.90
26743;DHT22;14341;51.256;22.478;2023-04-03T14:32:22;4.80;99.90
26743;DHT22;14341;51.256;22.478;2023-04-03T14:35:28;4.80;99.90
26743;DHT22;14341;51.256;22.478;2023-04-03T14:38:31;4.60;99.90
26743;DHT22;14341;51.256;22.478;2023-04-03T14:41:35;4.50;99.90
26743;DHT22;14341;51.256;22.478;2023-04-03T14:44:38;4.60;99.90
26743;DHT22;14341;51.256;22.478;2023-04-03T14:47:45;4.70;99.90
26743;DHT22;14341;51.256;22.478;2023-04-03T14:50:52;4.80;99.90
26743;DHT22;14341;51.256;22.478;2023-04-03T14:54:13;4.70;99.90
26743;DHT22;14341;51.256;22.478;2023-04-03T14:57:17;4.80;99.90
26743;DHT22;14341;51.256;22.478;2023-04-03T15:00:22;4.70;99.90
26743;DHT22;14341;51.256;22.478;2023-04-03T15:03:25;4.50;99.90
26743;DHT22;14341;51.256;22.478;2023-04-03T15:06:30;4.50;99.90
26743;DHT22;14341;51.256;22.478;2023-04-03T15:09:35;4.50;99.90
26743;DHT22;14341;51.256;22.478;2023-04-03T15:12:40;4.50;99.90
26743;DHT22;14341;51.256;22.478;2023-04-03T15:15:43;4.40;99.90
26743;DHT22;14341;51.256;22.478;2023-04-03T15:18:47;4.20;99.90
26743;DHT22;14341;51.256;22.478;2023-04-03T15:21:52;4.20;99.90
26743;DHT22;14341;51.256;22.478;2023-04-03T15:24:55;4.10;99.90
26743;DHT22;14341;51.256;22.478;2023-04-03T15:28:00;4.10;99.90
26743;DHT22;14341;51.256;22.478;2023-04-03T15:31:04;4.10;99.90
26743;DHT22;14341;51.256;22.478;2023-04-03T15:34:07;4.00;99.90
26743;DHT22;14341;51.256;22.478;2023-04-03T15:37:12;4.00;99.90
26743;DHT22;14341;51.256;22.478;2023-04-03T15:40:15;3.90;99.90
26743;DHT22;14341;51.256;22.478;2023-04-03T15:43:19;3.80;99.90
26743;DHT22;14341;51.256;22.478;2023-04-03T15:46:22;3.80;99.90
26743;DHT22;14341;51.256;22.478;2023-04-03T15:49:26;3.80;99.90
26743;DHT22;14341;51.256;22.478;2023-04-03T15:52:31;3.70;99.90
26743;DHT22;14341;51.256;22.478;2023-04-03T15:55:36;3.60;99.90
26743;DHT22;14341;51.256;22.478;2023-04-03T15:58:40;3.60;99.90
26743;DHT22;14341;51.256;22.478;2023-04-03T16:01:44;3.50;99.90
26743;DHT22;14341;51.256;22.478;2023-04-03T16:04:48;3.50;99.90
26743;DHT22;14341;51.256;22.478;2023-04-03T16:07:53;3.40;99.90
26743;DHT22;14341;51.256;22.478;2023-04-03T16:10:57;3.30;99.90
26743;DHT22;14341;51.256;22.478;2023-04-03T16:14:00;3.30;1.00
26743;DHT22;14341;51.256;22.478;2023-04-03T16:17:04;3.30;1.00
26743;DHT22;14341;51.256;22.478;2023-04-03T16:20:09;3.20;1.00
26743;DHT22;14341;51.256;22.478;2023-04-03T16:23:14;3.20;1.00
26743;DHT22;14341;51.256;22.478;2023-04-03T16:26:17;3.10;1.00
26743;DHT22;14341;51.256;22.478;2023-04-03T16:29:21;3.10;1.00
26743;DHT22;14341;51.256;22.478;2023-04-03T16:32:27;3.10;1.00
26743;DHT22;14341;51.256;22.478;2023-04-03T16:35:31;3.00;1.00
26743;DHT22;14341;51.256;22.478;2023-04-03T16:38:37;3.00;1.00
26743;DHT22;14341;51.256;22.478;2023-04-03T16:41:40;2.90;1.00
26743;DHT22;14341;51.256;22.478;2023-04-03T16:44:43;2.90;1.00
26743;DHT22;14341;51.256;22.478;2023-04-03T16:47:47;2.60;1.00
26743;DHT22;14341;51.256;22.478;2023-04-03T16:50:50;2.90;1.00
26743;DHT22;14341;51.256;22.478;2023-04-03T16:53:56;2.80;1.00
26743;DHT22;14341;51.256;22.478;2023-04-03T16:57:00;2.80;1.00
26743;DHT22;14341;51.256;22.478;2023-04-03T17:00:05;2.80;1.00
26743;DHT22;14341;51.256;22.478;2023-04-03T17:03:09;2.80;1.00
26743;DHT22;14341;51.256;22.478;2023-04-03T17:06:16;2.70;1.00
26743;DHT22;14341;51.256;22.478;2023-04-03T17:09:21;2.60;1.00
26743;DHT22;14341;51.256;22.478;2023-04-03T17:12:42;2.60;1.00
26743;DHT22;14341;51.256;22.478;2023-04-03T17:15:45;2.60;1.00
26743;DHT22;14341;51.256;22.478;2023-04-03T17:18:50;2.60;1.00
26743;DHT22;14341;51.256;22.478;2023-04-03T17:21:55;2.60;1.00
26743;DHT22;14341;51.256;22.478;2023-04-03T17:25:00;2.60;1.00
26743;DHT22;14341;51.256;22.478;2023-04-03T17:28:04;2.60;1.00
26743;DHT22;14341;51.256;22.478;2023-04-03T17:31:07;2.60;1.00
26743;DHT22;14341;51.256;22.478;2023-04-03T17:34:10;2.50;1.00
26743;DHT22;14341;51.256;22.478;2023-04-03T17:37:15;2.50;1.00
26743;DHT22;14341;51.256;22.478;2023-04-03T17:40:20;2.50;1.00
26743;DHT22;14341;51.256;22.478;2023-04-03T17:43:24;2.50;1.00
26743;DHT22;14341;51.256;22.478;2023-04-03T17:46:28;2.50;1.00
26743;DHT22;14341;51.256;22.478;2023-04-03T17:49:36;2.40;1.00
26743;DHT22;14341;51.256;22.478;2023-04-03T17:52:40;2.50;1.00
26743;DHT22;14341;51.256;22.478;2023-04-03T17:55:45;2.40;1.00
26743;DHT22;14341;51.256;22.478;2023-04-03T17:58:49;2.50;1.00
26743;DHT22;14341;51.256;22.478;2023-04-03T18:01:53;2.40;1.00
26743;DHT22;14341;51.256;22.478;2023-04-03T18:04:57;2.40;1.00
26743;DHT22;14341;51.256;22.478;2023-04-03T18:08:01;2.40;1.00
26743;DHT22;14341;51.256;22.478;2023-04-03T18:11:06;2.50;1.00
26743;DHT22;14341;51.256;22.478;2023-04-03T18:14:12;2.50;1.00
26743;DHT22;14341;51.256;22.478;2023-04-03T18:17:17;2.40;1.00
26743;DHT22;14341;51.256;22.478;2023-04-03T18:20:21;2.40;1.00
26743;DHT22;14341;51.256;22.478;2023-04-03T18:23:25;2.40;1.00
26743;DHT22;14341;51.256;22.478;2023-04-03T18:26:30;2.40;1.00
26743;DHT22;14341;51.256;22.478;2023-04-03T18:29:35;2.40;1.00
26743;DHT22;14341;51.256;22.478;2023-04-03T18:32:40;2.40;1.00
26743;DHT22;14341;51.256;22.478;2023-04-03T18:35:43;2.40;1.00
26743;DHT22;14341;51.256;22.478;2023-04-03T18:38:47;2.40;1.00
26743;DHT22;14341;51.256;22.478;2023-04-03T18:41:52;2.40;1.00
26743;DHT22;14341;51.256;22.478;2023-04-03T18:44:57;2.40;1.00
26743;DHT22;14341;51.256;22.478;2023-04-03T18:48:02;2.30;1.00
26743;DHT22;14341;51.256;22.478;2023-04-03T18:51:06;2.30;1.00
26743;DHT22;14341;51.256;22.478;2023-04-03T18:54:12;2.40;1.00
26743;DHT22;14341;51.256;22.478;2023-04-03T18:57:23;2.40;1.00
26743;DHT22;14341;51.256;22.478;2023-04-03T19:00:32;2.30;1.00
26743;DHT22;14341;51.256;22.478;2023-04-03T19:03:36;2.30;1.00
26743;DHT22;14341;51.256;22.478;2023-04-03T19:06:40;2.20;1.00
26743;DHT22;14341;51.256;22.478;2023-04-03T19:09:45;1.80;1.00
26743;DHT22;14341;51.256;22.478;2023-04-03T19:12:50;2.20;1.00
26743;DHT22;14341;51.256;22.478;2023-04-03T19:15:54;2.20;1.00
26743;DHT22;14341;51.256;22.478;2023-04-03T19:19:00;2.20;1.00
26743;DHT22;14341;51.256;22.478;2023-04-03T19:22:04;2.20;1.00
26743;DHT22;14341;51.256;22.478;2023-04-03T19:25:10;2.20;1.00
26743;DHT22;14341;51.256;22.478;2023-04-03T19:28:15;2.10;1.00
26743;DHT22;14341;51.256;22.478;2023-04-03T19:31:20;2.10;1.00
26743;DHT22;14341;51.256;22.478;2023-04-03T19:34:24;2.10;1.00
26743;DHT22;14341;51.256;22.478;2023-04-03T19:37:27;2.00;1.00
26743;DHT22;14341;51.256;22.478;2023-04-03T19:40:31;2.00;1.00
26743;DHT22;14341;51.256;22.478;2023-04-03T19:43:38;2.00;1.00
26743;DHT22;14341;51.256;22.478;2023-04-03T19:46:42;2.00;1.00
26743;DHT22;14341;51.256;22.478;2023-04-03T19:49:52;1.90;1.00
26743;DHT22;14341;51.256;22.478;2023-04-03T19:52:55;2.00;1.00
26743;DHT22;14341;51.256;22.478;2023-04-03T19:55:59;2.00;1.00
26743;DHT22;14341;51.256;22.478;2023-04-03T19:59:04;2.00;1.00
26743;DHT22;14341;51.256;22.478;2023-04-03T20:02:08;1.90;1.00
26743;DHT22;14341;51.256;22.478;2023-04-03T20:05:11;1.90;1.00